createdAt,value
2019-02-26T00:00:27.174Z,75.92
2019-02-26T00:01:28.688Z,76.43
2019-02-26T00:02:28.904Z,76.43
2019-02-26T00:03:28.550Z,76.54
2019-02-26T00:04:27.278Z,76.64
2019-02-26T00:05:28.581Z,76.12
2019-02-26T00:06:28.354Z,75.19
2019-02-26T00:07:28.119Z,75.50
2019-02-26T00:08:29.099Z,75.40
2019-02-26T00:09:27.638Z,75.40
2019-02-26T00:10:29.038Z,75.40
2019-02-26T00:11:29.026Z,75.64
2019-02-26T00:12:28.681Z,75.64
2019-02-26T00:13:27.666Z,76.16
2019-02-26T00:14:27.589Z,76.26
2019-02-26T00:15:26.936Z,76.37
2019-02-26T00:16:26.942Z,76.16
2019-02-26T00:17:26.920Z,76.89
2019-02-26T00:18:26.903Z,76.26
2019-02-26T00:19:26.896Z,76.16
2019-02-26T00:20:26.881Z,76.06
2019-02-26T00:21:28.706Z,76.37
2019-02-26T00:22:26.867Z,76.50
2019-02-26T00:23:28.028Z,76.61
2019-02-26T00:24:30.383Z,76.61
2019-02-26T00:25:26.829Z,77.02
2019-02-26T00:26:26.818Z,77.12
2019-02-26T00:27:28.146Z,76.61
2019-02-26T00:28:26.798Z,77.30
2019-02-26T00:29:28.126Z,77.85
2019-02-26T00:30:26.773Z,77.40
2019-02-26T00:31:28.759Z,77.64
2019-02-26T00:32:26.768Z,77.95
2019-02-26T00:33:27.269Z,78.58
2019-02-26T00:34:26.735Z,77.85
2019-02-26T00:35:27.668Z,78.03
2019-02-26T00:36:27.551Z,78.58
2019-02-26T00:37:28.355Z,78.34
2019-02-26T00:38:26.687Z,78.06
2019-02-26T00:39:27.150Z,77.85
2019-02-26T00:40:26.681Z,77.54
2019-02-26T00:41:26.803Z,77.64
2019-02-26T00:42:28.669Z,78.47
2019-02-26T00:43:27.918Z,78.47
2019-02-26T00:44:27.529Z,78.47
2019-02-26T00:45:27.244Z,77.64
2019-02-26T00:46:28.485Z,78.03
2019-02-26T00:47:29.906Z,77.30
2019-02-26T00:48:27.579Z,77.02
2019-02-26T00:49:28.131Z,77.33
2019-02-26T00:50:28.126Z,76.71
2019-02-26T00:51:27.000Z,77.12
2019-02-26T00:52:28.161Z,77.23
2019-02-26T00:53:28.341Z,77.85
2019-02-26T00:54:28.712Z,77.64
2019-02-26T00:55:29.377Z,77.51
2019-02-26T00:56:29.150Z,76.99
2019-02-26T00:57:27.327Z,76.57
2019-02-26T00:58:26.470Z,77.12
2019-02-26T00:59:26.459Z,77.44
2019-02-26T01:00:28.430Z,77.09
2019-02-26T01:01:26.438Z,76.47
2019-02-26T01:02:26.455Z,76.68
2019-02-26T01:03:26.417Z,76.61
2019-02-26T01:04:26.421Z,76.81
2019-02-26T01:05:26.405Z,77.54
2019-02-26T01:06:26.883Z,76.50
2019-02-26T01:07:28.139Z,77.12
2019-02-26T01:08:26.362Z,77.02
2019-02-26T01:09:27.357Z,77.12
2019-02-26T01:10:26.355Z,76.92
2019-02-26T01:11:28.006Z,76.92
2019-02-26T01:12:26.339Z,76.71
2019-02-26T01:13:28.418Z,76.50
2019-02-26T01:14:26.300Z,76.71
2019-02-26T01:15:26.300Z,77.02
2019-02-26T01:16:26.277Z,77.02
2019-02-26T01:17:26.327Z,77.16
2019-02-26T01:18:26.851Z,77.37
2019-02-26T01:19:26.266Z,77.33
2019-02-26T01:20:27.502Z,77.37
2019-02-26T01:21:28.518Z,77.06
2019-02-26T01:22:26.260Z,77.89
2019-02-26T01:23:26.798Z,78.03
2019-02-26T01:24:27.993Z,78.44
2019-02-26T01:25:26.183Z,78.61
2019-02-26T01:26:27.830Z,77.92
2019-02-26T01:27:26.173Z,78.55
2019-02-26T01:28:27.070Z,78.44
2019-02-26T01:29:27.730Z,78.44
2019-02-26T01:30:27.024Z,78.34
2019-02-26T01:31:27.361Z,78.03
2019-02-26T01:32:26.128Z,77.58
2019-02-26T01:33:27.794Z,77.72
2019-02-26T01:34:26.079Z,77.40
2019-02-26T01:35:26.259Z,77.68
2019-02-26T01:36:26.112Z,77.72
2019-02-26T01:37:27.771Z,77.20
2019-02-26T01:38:26.054Z,77.58
2019-02-26T01:39:26.026Z,77.68
2019-02-26T01:40:26.015Z,77.61
2019-02-26T01:41:27.325Z,76.47
2019-02-26T01:42:27.173Z,77.06
2019-02-26T01:43:26.000Z,76.64
2019-02-26T01:44:28.031Z,76.75
2019-02-26T01:45:27.221Z,76.43
2019-02-26T01:46:25.948Z,76.99
2019-02-26T01:47:26.300Z,77.30
2019-02-26T01:48:25.947Z,76.95
2019-02-26T01:49:27.988Z,76.47
2019-02-26T01:50:25.906Z,76.47
2019-02-26T01:51:26.670Z,76.75
2019-02-26T01:52:25.886Z,76.33
2019-02-26T01:53:27.360Z,76.16
2019-02-26T01:54:25.863Z,76.64
2019-02-26T01:55:27.621Z,76.47
2019-02-26T01:56:25.840Z,77.30
2019-02-26T01:57:27.686Z,76.26
2019-02-26T01:58:25.836Z,76.78
2019-02-26T01:59:25.810Z,77.13
2019-02-26T02:00:26.079Z,76.72
2019-02-26T02:01:26.242Z,76.72
2019-02-26T02:02:27.759Z,77.03
2019-02-26T02:03:27.821Z,77.23
2019-02-26T02:04:25.756Z,76.82
2019-02-26T02:05:28.571Z,77.23
2019-02-26T02:06:25.733Z,76.61
2019-02-26T02:07:27.775Z,77.34
2019-02-26T02:08:25.735Z,77.20
2019-02-26T02:09:25.701Z,77.20
2019-02-26T02:10:25.691Z,76.82
2019-02-26T02:11:28.270Z,77.65
2019-02-26T02:12:27.788Z,77.34
2019-02-26T02:13:28.249Z,78.27
2019-02-26T02:14:25.658Z,77.75
2019-02-26T02:15:25.641Z,76.61
2019-02-26T02:16:27.269Z,77.44
2019-02-26T02:17:25.619Z,77.86
2019-02-26T02:18:27.591Z,77.96
2019-02-26T02:19:27.424Z,77.44
2019-02-26T02:20:25.582Z,77.44
2019-02-26T02:21:26.003Z,77.40
2019-02-26T02:22:25.564Z,77.86
2019-02-26T02:23:26.224Z,76.92
2019-02-26T02:24:25.538Z,77.23
2019-02-26T02:25:29.006Z,77.34
2019-02-26T02:26:26.533Z,77.20
2019-02-26T02:27:28.139Z,77.13
2019-02-26T02:28:26.307Z,77.34
2019-02-26T02:29:28.065Z,77.82
2019-02-26T02:30:30.245Z,77.34
2019-02-26T02:31:28.081Z,76.61
2019-02-26T02:32:26.620Z,77.34
2019-02-26T02:33:28.957Z,76.82
2019-02-26T02:34:28.911Z,77.30
2019-02-26T02:35:25.417Z,77.44
2019-02-26T02:36:26.387Z,77.13
2019-02-26T02:37:26.858Z,77.34
2019-02-26T02:38:25.386Z,76.82
2019-02-26T02:39:26.444Z,77.23
2019-02-26T02:40:25.376Z,76.72
2019-02-26T02:41:25.354Z,77.23
2019-02-26T02:42:25.344Z,77.34
2019-02-26T02:43:25.335Z,77.03
2019-02-26T02:44:25.633Z,77.37
2019-02-26T02:45:25.308Z,77.27
2019-02-26T02:46:25.302Z,77.27
2019-02-26T02:47:27.792Z,77.86
2019-02-26T02:48:25.278Z,77.65
2019-02-26T02:49:25.280Z,77.55
2019-02-26T02:50:25.256Z,77.34
2019-02-26T02:51:25.745Z,77.65
2019-02-26T02:52:27.053Z,77.23
2019-02-26T02:53:27.272Z,77.79
2019-02-26T02:54:26.168Z,78.06
2019-02-26T02:55:25.200Z,77.89
2019-02-26T02:56:25.191Z,78.06
2019-02-26T02:57:26.938Z,78.17
2019-02-26T02:58:26.073Z,77.69
2019-02-26T02:59:25.189Z,77.27
2019-02-26T03:00:26.549Z,77.79
2019-02-26T03:01:28.654Z,77.79
2019-02-26T03:02:25.125Z,77.48
2019-02-26T03:03:25.115Z,78.17
2019-02-26T03:04:26.049Z,77.65
2019-02-26T03:05:25.095Z,77.55
2019-02-26T03:06:29.525Z,77.58
2019-02-26T03:07:27.496Z,76.82
2019-02-26T03:08:25.057Z,77.23
2019-02-26T03:09:25.070Z,77.89
2019-02-26T03:10:28.408Z,77.69
2019-02-26T03:11:25.051Z,77.58
2019-02-26T03:12:25.014Z,77.69
2019-02-26T03:13:26.010Z,77.69
2019-02-26T03:14:25.027Z,77.48
2019-02-26T03:15:27.225Z,78.00
2019-02-26T03:16:27.039Z,77.16
2019-02-26T03:17:24.968Z,77.16
2019-02-26T03:18:24.953Z,77.27
2019-02-26T03:19:24.997Z,77.89
2019-02-26T03:20:27.668Z,77.69
2019-02-26T03:21:27.718Z,76.64
2019-02-26T03:22:24.931Z,77.48
2019-02-26T03:23:24.945Z,77.37
2019-02-26T03:24:26.308Z,77.37
2019-02-26T03:25:27.012Z,77.37
2019-02-26T03:26:25.937Z,77.37
2019-02-26T03:27:27.795Z,77.16
2019-02-26T03:28:24.904Z,77.48
2019-02-26T03:29:24.850Z,78.20
2019-02-26T03:30:36.909Z,77.69
2019-02-26T03:31:33.707Z,77.27
2019-02-26T03:32:24.804Z,77.69
2019-02-26T03:33:24.812Z,77.79
2019-02-26T03:34:25.515Z,77.61
2019-02-26T03:35:24.765Z,77.93
2019-02-26T03:36:24.761Z,77.20
2019-02-26T03:37:25.853Z,78.34
2019-02-26T03:38:26.849Z,78.66
2019-02-26T03:39:24.741Z,78.97
2019-02-26T03:40:27.298Z,78.66
2019-02-26T03:41:26.145Z,79.21
2019-02-26T03:42:24.710Z,78.80
2019-02-26T03:43:24.695Z,78.69
2019-02-26T03:44:24.690Z,79.52
2019-02-26T03:45:25.227Z,79.59
2019-02-26T03:46:24.648Z,79.32
2019-02-26T03:47:24.634Z,79.63
2019-02-26T03:48:24.629Z,80.01
2019-02-26T03:49:27.097Z,79.42
2019-02-26T03:50:27.122Z,79.32
2019-02-26T03:51:24.595Z,79.63
2019-02-26T03:52:24.581Z,80.11
2019-02-26T03:53:28.052Z,79.42
2019-02-26T03:54:24.611Z,79.07
2019-02-26T03:55:24.550Z,79.38
2019-02-26T03:56:24.539Z,79.38
2019-02-26T03:57:24.858Z,79.59
2019-02-26T03:58:24.517Z,79.38
2019-02-26T03:59:24.521Z,78.86
2019-02-26T04:00:24.492Z,78.66
2019-02-26T04:01:24.485Z,78.03
2019-02-26T04:02:24.475Z,78.14
2019-02-26T04:03:24.460Z,77.83
2019-02-26T04:04:26.142Z,77.27
2019-02-26T04:05:24.445Z,77.72
2019-02-26T04:06:24.437Z,77.61
2019-02-26T04:07:26.016Z,76.68
2019-02-26T04:08:26.904Z,77.34
2019-02-26T04:09:24.394Z,77.86
2019-02-26T04:10:24.406Z,77.44
2019-02-26T04:11:25.602Z,77.44
2019-02-26T04:12:24.363Z,78.07
2019-02-26T04:13:24.353Z,78.80
2019-02-26T04:14:26.389Z,78.69
2019-02-26T04:15:27.113Z,78.38
2019-02-26T04:16:24.318Z,78.28
2019-02-26T04:17:27.949Z,78.73
2019-02-26T04:18:24.296Z,78.69
2019-02-26T04:19:26.790Z,78.59
2019-02-26T04:20:26.935Z,78.80
2019-02-26T04:21:24.264Z,78.20
2019-02-26T04:22:26.427Z,78.42
2019-02-26T04:23:24.250Z,78.17
2019-02-26T04:24:25.888Z,78.10
2019-02-26T04:25:27.006Z,78.20
2019-02-26T04:26:26.183Z,78.10
2019-02-26T04:27:24.201Z,78.20
2019-02-26T04:28:27.227Z,77.58
2019-02-26T04:29:24.182Z,78.10
2019-02-26T04:30:24.210Z,78.31
2019-02-26T04:31:24.157Z,78.83
2019-02-26T04:32:24.147Z,78.10
2019-02-26T04:33:24.139Z,78.63
2019-02-26T04:34:24.125Z,78.83
2019-02-26T04:35:24.130Z,78.83
2019-02-26T04:36:24.104Z,78.52
2019-02-26T04:37:24.795Z,79.04
2019-02-26T04:38:26.703Z,78.52
2019-02-26T04:39:24.156Z,78.52
2019-02-26T04:40:27.217Z,78.42
2019-02-26T04:41:24.050Z,78.10
2019-02-26T04:42:24.037Z,78.10
2019-02-26T04:43:25.564Z,78.63
2019-02-26T04:44:26.386Z,78.42
2019-02-26T04:45:24.033Z,78.20
2019-02-26T04:46:25.626Z,78.10
2019-02-26T04:47:25.064Z,78.10
2019-02-26T04:48:26.961Z,78.28
2019-02-26T04:49:27.120Z,78.10
2019-02-26T04:50:28.725Z,78.42
2019-02-26T04:51:24.052Z,78.31
2019-02-26T04:52:23.929Z,78.20
2019-02-26T04:53:25.819Z,78.31
2019-02-26T04:54:26.356Z,78.14
2019-02-26T04:55:23.920Z,78.83
2019-02-26T04:56:23.888Z,78.20
2019-02-26T04:57:23.889Z,78.87
2019-02-26T04:58:23.863Z,78.97
2019-02-26T04:59:23.850Z,78.34
2019-02-26T05:00:27.025Z,79.49
2019-02-26T05:01:23.875Z,79.70
2019-02-26T05:02:23.820Z,79.91
2019-02-26T05:03:23.808Z,79.49
2019-02-26T05:04:23.840Z,79.70
2019-02-26T05:05:25.876Z,79.08
2019-02-26T05:06:23.806Z,79.80
2019-02-26T05:07:23.769Z,79.49
2019-02-26T05:08:23.757Z,79.60
2019-02-26T05:09:24.728Z,79.60
2019-02-26T05:10:26.463Z,79.60
2019-02-26T05:11:31.765Z,79.60
2019-02-26T05:12:25.455Z,79.60
2019-02-26T05:13:25.212Z,79.39
2019-02-26T05:14:23.729Z,79.49
2019-02-26T05:15:26.400Z,79.60
2019-02-26T05:16:26.634Z,79.70
2019-02-26T05:17:26.432Z,79.49
2019-02-26T05:18:25.822Z,79.60
2019-02-26T05:19:24.365Z,79.77
2019-02-26T05:20:23.629Z,79.80
2019-02-26T05:21:24.473Z,79.70
2019-02-26T05:22:25.597Z,79.46
2019-02-26T05:23:25.912Z,79.70
2019-02-26T05:24:25.835Z,79.70
2019-02-26T05:25:23.568Z,79.39
2019-02-26T05:26:23.577Z,79.39
2019-02-26T05:27:24.948Z,79.66
2019-02-26T05:28:23.536Z,79.60
2019-02-26T05:29:23.531Z,79.39
2019-02-26T05:30:23.648Z,80.43
2019-02-26T05:31:23.524Z,79.60
2019-02-26T05:32:25.039Z,79.49
2019-02-26T05:33:25.285Z,80.47
2019-02-26T05:34:25.849Z,79.49
2019-02-26T05:35:25.330Z,79.49
2019-02-26T05:36:23.481Z,79.70
2019-02-26T05:37:23.437Z,79.60
2019-02-26T05:38:24.095Z,79.91
2019-02-26T05:39:24.245Z,80.02
2019-02-26T05:40:23.408Z,79.80
2019-02-26T05:41:23.423Z,80.12
2019-02-26T05:42:23.387Z,79.49
2019-02-26T05:43:25.750Z,79.70
2019-02-26T05:44:23.363Z,80.33
2019-02-26T05:45:23.871Z,80.33
2019-02-26T05:46:26.389Z,80.33
2019-02-26T05:47:24.033Z,80.33
2019-02-26T05:48:25.779Z,80.43
2019-02-26T05:49:23.351Z,80.22
2019-02-26T05:50:23.299Z,80.12
2019-02-26T05:51:24.507Z,80.22
2019-02-26T05:52:24.369Z,80.43
2019-02-26T05:53:23.268Z,80.64
2019-02-26T05:54:24.488Z,78.97
2019-02-26T05:55:25.487Z,79.39
2019-02-26T05:56:23.257Z,79.91
2019-02-26T05:57:27.759Z,80.02
2019-02-26T05:58:23.220Z,80.43
2019-02-26T05:59:23.345Z,80.19
2019-02-26T06:00:26.319Z,80.50
2019-02-26T06:01:24.949Z,79.39
2019-02-26T06:02:24.667Z,79.49
2019-02-26T06:03:23.166Z,79.39
2019-02-26T06:04:23.197Z,79.35
2019-02-26T06:05:25.960Z,80.02
2019-02-26T06:06:23.275Z,79.39
2019-02-26T06:07:27.033Z,79.49
2019-02-26T06:08:25.610Z,79.39
2019-02-26T06:09:25.479Z,80.02
2019-02-26T06:10:24.610Z,80.22
2019-02-26T06:11:23.066Z,80.12
2019-02-26T06:12:23.238Z,80.43
2019-02-26T06:13:23.143Z,80.54
2019-02-26T06:14:25.475Z,80.57
2019-02-26T06:15:25.711Z,80.43
2019-02-26T06:16:24.467Z,80.02
2019-02-26T06:17:23.173Z,80.02
2019-02-26T06:18:22.989Z,80.22
2019-02-26T06:19:22.978Z,80.64
2019-02-26T06:20:23.640Z,80.43
2019-02-26T06:21:23.501Z,79.28
2019-02-26T06:22:26.047Z,79.18
2019-02-26T06:23:23.231Z,79.70
2019-02-26T06:24:24.821Z,79.39
2019-02-26T06:25:24.438Z,79.18
2019-02-26T06:26:22.906Z,78.77
2019-02-26T06:27:25.225Z,78.87
2019-02-26T06:28:22.882Z,78.87
2019-02-26T06:29:24.728Z,78.66
2019-02-26T06:34:21.231Z,79.53
2019-02-26T06:35:01.566Z,79.43
2019-02-26T06:36:01.754Z,79.74
2019-02-26T06:37:00.537Z,79.80
2019-02-26T06:38:02.099Z,79.84
2019-02-26T06:39:01.514Z,79.94
2019-02-26T06:40:02.483Z,79.32
2019-02-26T06:41:00.494Z,78.91
2019-02-26T06:42:00.484Z,79.74
2019-02-26T06:43:00.507Z,79.74
2019-02-26T06:44:00.471Z,79.53
2019-02-26T06:45:00.454Z,79.94
2019-02-26T06:46:02.586Z,79.84
2019-02-26T06:47:02.492Z,80.47
2019-02-26T06:48:00.460Z,80.47
2019-02-26T06:49:08.953Z,79.43
2019-02-26T06:50:02.770Z,79.53
2019-02-26T06:51:08.634Z,80.16
2019-02-26T06:52:00.377Z,79.63
2019-02-26T06:53:04.410Z,80.05
2019-02-26T06:54:01.076Z,80.26
2019-02-26T06:55:02.888Z,80.22
2019-02-26T06:56:00.846Z,80.43
2019-02-26T06:57:00.325Z,80.26
2019-02-26T06:58:00.328Z,80.43
2019-02-26T06:59:00.729Z,80.22
2019-02-26T07:00:01.171Z,80.64
2019-02-26T07:01:00.281Z,80.12
2019-02-26T07:02:00.267Z,80.22
2019-02-26T07:03:02.629Z,80.33
2019-02-26T07:04:00.251Z,79.91
2019-02-26T07:05:00.255Z,80.12
2019-02-26T07:06:03.209Z,80.29
2019-02-26T07:07:01.919Z,80.22
2019-02-26T07:08:02.033Z,80.29
2019-02-26T07:09:00.196Z,80.40
2019-02-26T07:10:00.241Z,80.19
2019-02-26T07:11:00.167Z,80.29
2019-02-26T07:12:00.159Z,80.29
2019-02-26T07:13:02.054Z,80.36
2019-02-26T07:14:01.311Z,80.26
2019-02-26T07:15:00.245Z,80.19
2019-02-26T07:16:00.113Z,80.71
2019-02-26T07:17:00.100Z,80.40
2019-02-26T07:18:04.335Z,80.26
2019-02-26T07:19:01.121Z,80.26
2019-02-26T07:20:00.878Z,80.26
2019-02-26T07:21:00.349Z,80.11
2019-02-26T07:22:00.045Z,80.11
2019-02-26T07:23:00.100Z,80.01
2019-02-26T07:24:01.191Z,79.91
2019-02-26T07:25:00.015Z,80.53
2019-02-26T07:26:00.003Z,79.45
2019-02-26T07:27:01.975Z,80.49
2019-02-26T07:28:01.202Z,79.45
2019-02-26T07:28:59.994Z,80.08
2019-02-26T07:29:59.964Z,79.97
2019-02-26T07:31:02.487Z,79.52
2019-02-26T07:31:59.951Z,79.00
2019-02-26T07:32:59.932Z,79.41
2019-02-26T07:34:01.385Z,79.41
2019-02-26T07:34:59.904Z,79.41
2019-02-26T07:36:01.776Z,78.23
2019-02-26T07:36:59.882Z,78.65
2019-02-26T07:38:01.323Z,78.55
2019-02-26T07:38:59.881Z,77.92
2019-02-26T07:39:59.859Z,78.55
2019-02-26T07:41:01.915Z,78.51
2019-02-26T07:41:59.828Z,78.51
2019-02-26T07:42:59.832Z,78.51
2019-02-26T07:44:00.071Z,78.27
2019-02-26T07:44:59.792Z,78.16
2019-02-26T07:45:59.782Z,77.95
2019-02-26T07:47:00.922Z,77.51
2019-02-26T07:48:00.973Z,77.51
2019-02-26T07:49:01.927Z,76.43
2019-02-26T07:50:01.625Z,77.06
2019-02-26T07:50:59.735Z,77.02
2019-02-26T07:52:00.339Z,76.29
2019-02-26T07:52:59.707Z,76.05
2019-02-26T07:54:00.718Z,76.46
2019-02-26T07:54:59.691Z,76.46
2019-02-26T07:56:01.766Z,75.60
2019-02-26T07:57:00.592Z,75.57
2019-02-26T07:57:59.655Z,74.74
2019-02-26T07:59:03.770Z,74.08
2019-02-26T07:59:59.628Z,73.98
2019-02-26T08:00:59.621Z,73.84
2019-02-26T08:02:01.368Z,74.12
2019-02-26T08:03:00.150Z,72.74
2019-02-26T08:03:59.619Z,72.22
2019-02-26T08:04:59.578Z,71.57
2019-02-26T08:06:04.094Z,71.78
2019-02-26T08:07:01.336Z,70.92
2019-02-26T08:07:59.553Z,70.20
2019-02-26T08:08:59.549Z,69.75
2019-02-26T08:09:59.541Z,69.41
2019-02-26T08:10:59.510Z,68.96
2019-02-26T08:12:01.462Z,68.96
2019-02-26T08:13:01.536Z,68.62
2019-02-26T08:14:01.473Z,67.87
2019-02-26T08:14:59.458Z,67.02
2019-02-26T08:16:00.109Z,67.12
2019-02-26T08:17:01.297Z,66.47
2019-02-26T08:18:01.290Z,65.95
2019-02-26T08:19:01.314Z,66.24
2019-02-26T08:20:01.675Z,64.56
2019-02-26T08:21:00.758Z,64.76
2019-02-26T08:21:59.402Z,64.73
2019-02-26T08:23:01.308Z,63.47
2019-02-26T08:23:59.377Z,63.37
2019-02-26T08:24:59.374Z,62.31
2019-02-26T08:26:00.533Z,62.29
2019-02-26T08:27:01.420Z,60.82
2019-02-26T08:28:01.293Z,61.10
2019-02-26T08:29:00.202Z,60.79
2019-02-26T08:30:00.899Z,60.05
2019-02-26T08:30:59.278Z,60.12
2019-02-26T08:32:01.199Z,59.50
2019-02-26T08:33:02.072Z,59.48
2019-02-26T08:33:59.285Z,58.86
2019-02-26T08:34:59.993Z,58.02
2019-02-26T08:35:59.223Z,57.89
2019-02-26T08:36:59.215Z,57.68
2019-02-26T08:37:59.206Z,55.92
2019-02-26T08:38:59.254Z,56.61
2019-02-26T08:39:59.182Z,55.97
2019-02-26T08:40:59.167Z,55.66
2019-02-26T08:41:59.203Z,54.95
2019-02-26T08:42:59.148Z,54.21
2019-02-26T08:43:59.140Z,53.88
2019-02-26T08:44:59.144Z,53.77
2019-02-26T08:45:59.124Z,53.06
2019-02-26T08:46:59.111Z,53.27
2019-02-26T08:47:59.088Z,53.03
2019-02-26T08:49:07.866Z,51.51
2019-02-26T08:50:01.266Z,53.03
2019-02-26T08:51:03.354Z,53.24
2019-02-26T08:51:59.047Z,52.73
2019-02-26T08:52:59.046Z,52.22
2019-02-26T08:53:59.040Z,52.62
2019-02-26T08:54:59.034Z,52.40
2019-02-26T08:56:01.419Z,51.38
2019-02-26T08:56:59.025Z,51.68
2019-02-26T08:57:58.995Z,51.76
2019-02-26T08:59:00.842Z,51.53
2019-02-26T08:59:58.977Z,51.51
2019-02-26T09:00:58.944Z,50.39
2019-02-26T09:01:58.941Z,50.70
2019-02-26T09:02:58.932Z,50.52
2019-02-26T09:04:00.761Z,50.95
2019-02-26T09:04:59.752Z,51.56
2019-02-26T09:06:12.442Z,51.25
2019-02-26T09:07:00.265Z,50.42
2019-02-26T09:07:58.885Z,50.90
2019-02-26T09:09:00.172Z,50.85
2019-02-26T09:09:58.891Z,49.91
2019-02-26T09:11:00.743Z,49.28
2019-02-26T09:12:00.635Z,47.81
2019-02-26T09:12:58.818Z,48.63
2019-02-26T09:13:59.578Z,47.89
2019-02-26T09:14:58.826Z,47.24
2019-02-26T09:16:01.059Z,46.02
2019-02-26T09:16:59.621Z,46.41
2019-02-26T09:17:58.791Z,45.17
2019-02-26T09:18:58.778Z,44.96
2019-02-26T09:20:08.482Z,46.16
2019-02-26T09:20:58.731Z,45.23
2019-02-26T09:21:58.762Z,42.98
2019-02-26T09:22:59.663Z,43.69
2019-02-26T09:24:00.015Z,43.46
2019-02-26T09:24:59.906Z,42.43
2019-02-26T09:26:00.383Z,42.72
2019-02-26T09:27:00.472Z,41.59
2019-02-26T09:27:58.656Z,41.39
2019-02-26T09:28:58.652Z,40.98
2019-02-26T09:29:58.650Z,41.08
2019-02-26T09:31:01.295Z,41.06
2019-02-26T09:31:58.611Z,41.75
2019-02-26T09:33:00.849Z,41.11
2019-02-26T09:33:58.588Z,41.11
2019-02-26T09:34:59.249Z,39.56
2019-02-26T09:35:58.617Z,38.93
2019-02-26T09:37:00.510Z,39.12
2019-02-26T09:38:00.899Z,38.92
2019-02-26T09:38:58.538Z,37.69
2019-02-26T09:39:59.248Z,38.20
2019-02-26T09:40:58.529Z,36.75
2019-02-26T09:41:59.440Z,37.15
2019-02-26T09:43:00.104Z,36.45
2019-02-26T09:43:59.360Z,37.07
2019-02-26T09:45:00.207Z,37.34
2019-02-26T09:45:58.476Z,36.82
2019-02-26T09:47:00.590Z,36.80
2019-02-26T09:47:58.453Z,34.88
2019-02-26T09:49:00.346Z,35.69
2019-02-26T09:49:58.521Z,34.78
2019-02-26T09:50:58.432Z,34.89
2019-02-26T09:51:59.063Z,34.58
2019-02-26T09:52:59.224Z,35.28
2019-02-26T09:53:58.966Z,35.75
2019-02-26T09:54:58.363Z,34.93
2019-02-26T09:55:58.378Z,33.73
2019-02-26T09:56:58.335Z,35.05
2019-02-26T09:57:58.329Z,33.43
2019-02-26T09:58:58.341Z,33.91
2019-02-26T10:00:00.252Z,34.11
2019-02-26T10:00:58.309Z,33.70
2019-02-26T10:01:58.936Z,34.06
2019-02-26T10:02:58.296Z,33.16
2019-02-26T10:04:00.802Z,33.65
2019-02-26T10:04:58.248Z,32.55
2019-02-26T10:05:58.269Z,33.03
2019-02-26T10:06:58.245Z,32.75
2019-02-26T10:08:00.490Z,32.55
2019-02-26T10:08:58.208Z,33.35
2019-02-26T10:09:59.848Z,32.03
2019-02-26T10:11:00.211Z,33.23
2019-02-26T10:11:58.169Z,32.93
2019-02-26T10:13:01.462Z,32.03
2019-02-26T10:13:58.171Z,31.93
2019-02-26T10:15:00.151Z,31.62
2019-02-26T10:15:59.292Z,31.81
2019-02-26T10:16:58.138Z,31.29
2019-02-26T10:17:59.576Z,31.89
2019-02-26T10:18:58.110Z,31.39
2019-02-26T10:19:59.373Z,31.09
2019-02-26T10:20:58.110Z,30.98
2019-02-26T10:22:00.033Z,31.39
2019-02-26T10:23:00.746Z,31.89
2019-02-26T10:23:59.433Z,31.77
2019-02-26T10:24:58.039Z,30.94
2019-02-26T10:26:00.185Z,29.94
2019-02-26T10:27:00.793Z,30.72
2019-02-26T10:28:03.126Z,30.29
2019-02-26T10:29:04.210Z,29.10
2019-02-26T10:29:57.983Z,29.74
2019-02-26T10:31:03.864Z,30.54
2019-02-26T10:31:57.976Z,30.12
2019-02-26T10:33:01.842Z,29.03
2019-02-26T10:33:57.948Z,30.32
2019-02-26T10:34:57.932Z,29.82
2019-02-26T10:35:57.960Z,28.64
2019-02-26T10:36:57.907Z,28.73
2019-02-26T10:38:00.446Z,28.93
2019-02-26T10:39:00.250Z,29.20
2019-02-26T10:39:57.907Z,27.71
2019-02-26T10:40:59.748Z,28.89
2019-02-26T10:42:01.941Z,28.77
2019-02-26T10:42:57.861Z,26.87
2019-02-26T10:43:57.835Z,27.40
2019-02-26T10:44:57.827Z,28.70
2019-02-26T10:45:57.873Z,28.22
2019-02-26T10:46:58.928Z,29.02
2019-02-26T10:48:00.961Z,28.32
2019-02-26T10:48:57.789Z,28.53
2019-02-26T10:49:57.807Z,28.81
2019-02-26T10:50:57.778Z,29.10
2019-02-26T10:51:58.632Z,27.20
2019-02-26T10:53:05.705Z,28.69
2019-02-26T10:53:59.945Z,27.58
2019-02-26T10:54:57.747Z,26.98
2019-02-26T10:55:57.718Z,29.47
2019-02-26T10:57:00.183Z,28.58
2019-02-26T10:57:58.700Z,27.09
2019-02-26T10:59:02.770Z,28.70
2019-02-26T10:59:59.527Z,29.78
2019-02-26T11:00:59.431Z,27.88
2019-02-26T11:02:00.159Z,27.86
2019-02-26T11:02:57.658Z,26.27
2019-02-26T11:03:57.652Z,28.93
2019-02-26T11:04:57.758Z,27.14
2019-02-26T11:05:57.613Z,26.84
2019-02-26T11:06:59.403Z,27.27
2019-02-26T11:07:59.729Z,27.46
2019-02-26T11:08:59.294Z,27.26
2019-02-26T11:09:58.835Z,26.27
2019-02-26T11:10:57.593Z,27.15
2019-02-26T11:12:00.041Z,27.04
2019-02-26T11:12:59.496Z,29.23
2019-02-26T11:13:57.562Z,28.23
2019-02-26T11:14:58.638Z,27.55
2019-02-26T11:15:59.828Z,26.98
2019-02-26T11:16:58.567Z,28.28
2019-02-26T11:17:57.491Z,29.19
2019-02-26T11:18:59.334Z,29.10
2019-02-26T11:19:58.523Z,29.02
2019-02-26T11:20:59.283Z,28.76
2019-02-26T11:21:58.661Z,31.82
2019-02-26T11:22:57.441Z,32.36
2019-02-26T11:23:58.474Z,33.62
2019-02-26T11:24:58.565Z,34.64
2019-02-26T11:25:57.411Z,34.26
2019-02-26T11:26:57.439Z,34.58
2019-02-26T11:27:57.389Z,35.68
2019-02-26T11:28:57.410Z,35.28
2019-02-26T11:29:59.462Z,36.26
2019-02-26T11:30:57.377Z,34.64
2019-02-26T11:31:57.376Z,34.73
2019-02-26T11:33:02.098Z,34.91
2019-02-26T11:34:00.884Z,33.89
2019-02-26T11:34:58.115Z,33.86
2019-02-26T11:35:59.541Z,32.73
2019-02-26T11:36:58.571Z,32.60
2019-02-26T11:37:58.080Z,32.48
2019-02-26T11:38:59.922Z,31.18
2019-02-26T11:39:58.249Z,31.56
2019-02-26T11:40:57.254Z,31.34
2019-02-26T11:42:00.763Z,29.95
2019-02-26T11:42:59.662Z,29.93
2019-02-26T11:43:57.250Z,28.70
2019-02-26T11:44:57.245Z,28.77
2019-02-26T11:45:59.095Z,27.67
2019-02-26T11:46:57.233Z,28.14
2019-02-26T11:47:58.183Z,26.43
2019-02-26T11:48:57.561Z,25.12
2019-02-26T11:49:59.506Z,25.08
2019-02-26T11:51:00.810Z,25.65
2019-02-26T11:51:57.162Z,24.64
2019-02-26T11:52:57.164Z,24.70
2019-02-26T11:53:57.120Z,24.48
2019-02-26T11:54:58.891Z,22.88
2019-02-26T11:55:59.159Z,23.36
2019-02-26T11:56:57.102Z,22.56
2019-02-26T11:57:57.089Z,22.55
2019-02-26T11:58:57.057Z,22.44
2019-02-26T11:59:57.655Z,21.55
2019-02-26T12:00:57.446Z,22.71
2019-02-26T12:01:58.941Z,20.74
2019-02-26T12:02:57.074Z,21.13
2019-02-26T12:04:03.234Z,20.85
2019-02-26T12:04:59.965Z,21.52
2019-02-26T12:06:00.582Z,20.62
2019-02-26T12:06:58.531Z,20.51
2019-02-26T12:07:58.810Z,20.51
2019-02-26T12:08:56.954Z,21.08
2019-02-26T12:09:57.867Z,20.48
2019-02-26T12:11:01.084Z,19.70
2019-02-26T12:11:58.588Z,19.50
2019-02-26T12:12:59.410Z,19.88
2019-02-26T12:13:56.909Z,18.80
2019-02-26T12:14:56.937Z,19.09
2019-02-26T12:15:56.896Z,19.29
2019-02-26T12:16:56.903Z,19.38
2019-02-26T12:17:58.785Z,18.30
2019-02-26T12:18:58.850Z,17.63
2019-02-26T12:19:58.039Z,19.20
2019-02-26T12:20:56.846Z,19.48
2019-02-26T12:21:57.500Z,19.58
2019-02-26T12:22:56.836Z,19.27
2019-02-26T12:23:57.992Z,18.79
2019-02-26T12:24:58.888Z,19.07
2019-02-26T12:25:59.219Z,18.00
2019-02-26T12:26:56.774Z,17.43
2019-02-26T12:27:56.798Z,18.02
2019-02-26T12:28:57.752Z,18.12
2019-02-26T12:29:56.748Z,19.20
2019-02-26T12:30:58.612Z,19.29
2019-02-26T12:31:58.241Z,19.10
2019-02-26T12:32:56.759Z,19.40
2019-02-26T12:33:56.715Z,19.13
2019-02-26T12:34:56.795Z,19.55
2019-02-26T12:35:59.192Z,20.73
2019-02-26T12:37:02.044Z,20.53
2019-02-26T12:38:01.378Z,20.72
2019-02-26T12:38:59.946Z,20.71
2019-02-26T12:39:57.915Z,21.00
2019-02-26T12:40:56.676Z,20.21
2019-02-26T12:41:56.639Z,20.51
2019-02-26T12:42:56.617Z,20.69
2019-02-26T12:43:59.393Z,20.02
2019-02-26T12:44:57.434Z,20.12
2019-02-26T12:46:08.303Z,20.53
2019-02-26T12:46:57.552Z,20.72
2019-02-26T12:47:56.579Z,20.73
2019-02-26T12:48:56.572Z,20.53
2019-02-26T12:49:58.568Z,19.86
2019-02-26T12:50:58.397Z,20.74
2019-02-26T12:51:57.643Z,20.86
2019-02-26T12:52:57.197Z,21.64
2019-02-26T12:53:56.521Z,22.03
2019-02-26T12:55:08.064Z,21.84
2019-02-26T12:55:57.468Z,20.66